Rock, Kansas
Current Conditions -  °F | °C
As of 2:58 AM on Sunday 26 Oct 2014 (Local Time) from KIAB Reporting Station
Clear Clear  
Wind Chill: 64°   Ceiling: Unl
Heat Index: 64°   Visibility: 10mi
Dew Point: 59°   Wind: 9mph
Humidity: 85%   Direction: 170°S
Pressure: 29.93"   Gusts: NA
Location:  37.44°N, 97.01°W
Report Text: KIAB 260758Z AUTO 17008KT 10SM CLR 18/15 A2993 RMK AO2 SLP125 T01750150
Loading
Personal Weather Stations






























Interactive Weather Map
Tropical Storm Tracking
New forecast layout! Learn more

10-Day Weather Forecast

Advertisements
Track Severe Weather on mobile